Terminal Aerodrome Forecast
Issued by NWS

Home | Current Version | Previous Version | Text Only | Print | Product List | Glossary On
Versions: 1 2 3 4 5 6 7 8 9 10 11 12 13 14
000
FTUS45 KGJT 262339 AAA
TAFTEX
TAF AMD
KTEX 262339Z 2700/2724 05005KT P6SM VCTS SCT080CB SCT150
      TEMPO 2700/2704 VRB12G20KT P6SM -TSRA BKN080CB OVC150
     FM270400 12005KT P6SM FEW250
     FM271800 31009KT P6SM FEW250=

USA.gov is the U.S. government's official web portal to all federal, state and local government web resources and services.